Hauptseite
METAR-TAF:

METAR-TAF

Flughäfen :

Ula, Norwegen

Bohrplattform

Breite: 59-06-39N, Länge: 2-50-45E, Höhe: 0 m

Beobachtung

Neuester Wetterbericht von vor 29 Minuten, um 10:50 UTC
Wind 36 kt aus West/Südwest
Temperatur 7°C
Luftfeuchtigkeit 76%
Luftdruck 979 hPa
Sichtweite 10 km oder mehr

METAR: ENLA 231050Z AUTO 25036KT 9999NDV SCT016/// 07/03 Q0979 W///S5

Zeit: 12:19 (11:19 UTC)


TAF: fehlend

Wetterbeobachtungen und Prognosen von mehr als 4000 Flughäfen (METAR und TAF Bericht).

Die verfügbaren Stationen werden durch gelbe und rote Markierungen auf der Karte dargestellt.

Führen Sie die Maus auf sie, um den Namen der Station zu sehen.

Darauf klicken, um die Beobachtung von Wetterbeobachtungen und Prognosen zu sehen.

Um die Karte zu ändern : klicken Sie auf den grünen Tasten mit einem schwarzen Kreuz Zum Vergrößern, auf den grünen Button mit einem Gedankenstrich zu verkleinern, oder auf die grünen Pfeile für benachbarte Karten.


METAR-TAF: